createdAt,value
2022-09-30T00:01:10.759Z,3.67
2022-09-30T00:03:37.309Z,4.47
2022-09-30T00:06:08.807Z,3.90
2022-09-30T00:08:36.942Z,4.55
2022-09-30T00:11:06.947Z,6.15
2022-09-30T00:13:35.760Z,5.97
2022-09-30T00:16:02.583Z,5.07
2022-09-30T00:18:30.419Z,4.60
2022-09-30T00:20:56.936Z,4.43
2022-09-30T00:23:24.154Z,6.32
2022-09-30T00:25:51.344Z,4.53
2022-09-30T00:28:17.895Z,7.32
2022-09-30T00:30:44.451Z,4.35
2022-09-30T00:33:11.036Z,3.90
2022-09-30T00:35:37.897Z,7.57
2022-09-30T00:38:04.631Z,5.05
2022-09-30T00:40:31.253Z,5.53
2022-09-30T00:42:58.938Z,4.85
2022-09-30T00:45:28.920Z,4.35
2022-09-30T00:48:11.853Z,7.50
2022-09-30T00:50:46.760Z,6.22
2022-09-30T00:53:25.199Z,7.93
2022-09-30T00:55:55.395Z,6.75
2022-09-30T00:58:45.616Z,7.78
2022-09-30T01:01:12.798Z,6.97
2022-09-30T01:03:46.913Z,6.57
2022-09-30T01:06:13.496Z,5.25
2022-09-30T01:08:40.946Z,9.38
2022-09-30T01:11:08.496Z,5.50
2022-09-30T01:13:36.325Z,6.03
2022-09-30T01:16:27.379Z,4.72
2022-09-30T01:19:21.843Z,6.57
2022-09-30T01:22:06.668Z,6.78
2022-09-30T01:24:51.346Z,6.13
2022-09-30T01:27:33.892Z,7.97
2022-09-30T01:30:05.425Z,4.90
2022-09-30T01:33:03.684Z,7.82
2022-09-30T01:35:57.127Z,6.50
2022-09-30T01:38:28.381Z,5.72
2022-09-30T01:40:57.623Z,6.40
2022-09-30T01:43:35.932Z,6.68
2022-09-30T01:46:14.989Z,6.57
2022-09-30T01:48:55.519Z,7.70
2022-09-30T01:51:35.739Z,6.97
2022-09-30T01:54:10.958Z,9.43
2022-09-30T01:56:43.500Z,8.15
2022-09-30T01:59:39.117Z,6.70
2022-09-30T02:02:20.006Z,7.20
2022-09-30T02:04:57.519Z,9.23
2022-09-30T02:07:32.935Z,8.38
2022-09-30T02:10:20.494Z,6.25
2022-09-30T02:13:03.302Z,5.70
2022-09-30T02:15:40.364Z,6.85
2022-09-30T02:18:29.471Z,5.70
2022-09-30T02:21:00.463Z,5.82
2022-09-30T02:23:32.438Z,6.57
2022-09-30T02:26:21.844Z,5.20
2022-09-30T02:28:54.528Z,5.50
2022-09-30T02:31:25.066Z,7.15
2022-09-30T02:33:57.562Z,9.60
2022-09-30T02:36:34.735Z,7.75
2022-09-30T02:39:10.761Z,6.70
2022-09-30T02:41:47.461Z,5.75
2022-09-30T02:44:14.871Z,7.07
2022-09-30T02:46:51.680Z,5.25
2022-09-30T02:49:28.130Z,8.65
2022-09-30T02:51:57.734Z,6.53
2022-09-30T02:54:36.039Z,7.20
2022-09-30T02:57:38.106Z,7.18
2022-09-30T03:00:11.783Z,8.52
2022-09-30T03:02:40.192Z,8.25
2022-09-30T03:05:07.012Z,5.70
2022-09-30T03:07:34.876Z,9.95
2022-09-30T03:10:01.430Z,6.13
2022-09-30T03:13:10.270Z,8.20
2022-09-30T03:15:45.960Z,7.72
2022-09-30T03:19:00.731Z,6.25
2022-09-30T03:22:10.740Z,5.88
2022-09-30T03:25:05.149Z,9.13
2022-09-30T03:27:35.607Z,6.38
2022-09-30T03:30:05.116Z,5.97
2022-09-30T03:32:37.575Z,6.15
2022-09-30T03:35:33.252Z,7.78
2022-09-30T03:38:23.952Z,9.50
2022-09-30T03:41:12.823Z,6.85
2022-09-30T03:43:50.677Z,5.55
2022-09-30T03:46:32.346Z,8.60
2022-09-30T03:49:04.992Z,9.35
2022-09-30T03:51:32.820Z,6.85
2022-09-30T03:53:59.599Z,7.38
2022-09-30T03:56:28.241Z,8.05
2022-09-30T03:58:55.089Z,7.70
2022-09-30T04:01:22.581Z,7.32
2022-09-30T04:03:53.616Z,10.50
2022-09-30T04:06:22.842Z,8.50
2022-09-30T04:08:50.230Z,8.50
2022-09-30T04:11:18.160Z,7.97
2022-09-30T04:13:44.673Z,7.05
2022-09-30T04:16:11.310Z,7.60
2022-09-30T04:18:39.095Z,9.43
2022-09-30T04:21:07.372Z,11.45
2022-09-30T04:23:38.113Z,9.10
2022-09-30T04:26:06.233Z,9.43
2022-09-30T04:28:33.899Z,8.57
2022-09-30T04:31:05.072Z,11.65
2022-09-30T04:33:32.431Z,10.30
2022-09-30T04:36:00.403Z,9.65
2022-09-30T04:38:27.696Z,8.23
2022-09-30T04:40:56.580Z,8.63
2022-09-30T04:43:24.267Z,10.73
2022-09-30T04:45:52.713Z,10.25
2022-09-30T04:48:19.344Z,9.55
2022-09-30T04:50:45.872Z,8.63
2022-09-30T04:53:14.715Z,9.57
2022-09-30T04:55:42.339Z,10.07
2022-09-30T04:58:09.141Z,9.98
2022-09-30T05:00:36.254Z,12.60
2022-09-30T05:03:03.299Z,10.00
2022-09-30T05:05:30.245Z,12.63
2022-09-30T05:08:04.203Z,12.48
2022-09-30T05:10:31.716Z,15.20
2022-09-30T05:12:58.626Z,9.15
2022-09-30T05:15:26.280Z,13.13
2022-09-30T05:17:53.424Z,13.63
2022-09-30T05:20:21.359Z,11.77
2022-09-30T05:22:48.353Z,14.45
2022-09-30T05:25:14.992Z,13.02
2022-09-30T05:27:41.541Z,13.80
2022-09-30T05:30:09.130Z,13.10
2022-09-30T05:32:35.685Z,11.35
2022-09-30T05:35:03.470Z,10.85
2022-09-30T05:37:30.115Z,9.50
2022-09-30T05:39:57.011Z,15.23
2022-09-30T05:42:23.586Z,11.68
2022-09-30T05:44:50.164Z,11.60
2022-09-30T05:47:17.188Z,12.77
2022-09-30T05:49:44.683Z,11.55
2022-09-30T05:52:13.132Z,11.23
2022-09-30T05:54:40.201Z,12.25
2022-09-30T05:57:07.802Z,12.68
2022-09-30T06:02:17.924Z,13.70
2022-09-30T06:04:45.789Z,15.73
2022-09-30T06:07:14.135Z,12.00
2022-09-30T06:09:40.965Z,12.10
2022-09-30T06:12:08.210Z,15.10
2022-09-30T06:14:35.011Z,13.55
2022-09-30T06:17:02.246Z,11.68
2022-09-30T06:19:30.814Z,11.50
2022-09-30T06:21:58.306Z,12.55
2022-09-30T06:24:25.709Z,13.20
2022-09-30T06:26:53.196Z,15.27
2022-09-30T06:29:20.293Z,12.60
2022-09-30T06:31:49.250Z,10.98
2022-09-30T06:34:18.913Z,13.95
2022-09-30T06:36:46.348Z,14.23
2022-09-30T06:39:15.432Z,12.88
2022-09-30T06:41:45.673Z,18.48
2022-09-30T06:44:19.927Z,14.20
2022-09-30T06:46:53.556Z,13.70
2022-09-30T06:49:21.699Z,13.43
2022-09-30T06:52:03.314Z,16.67
2022-09-30T07:03:03.602Z,14.18
2022-09-30T07:05:34.854Z,14.05
2022-09-30T07:17:50.051Z,13.90
2022-09-30T07:20:27.996Z,15.10
2022-09-30T07:25:38.758Z,13.68
2022-09-30T07:28:05.428Z,13.73
2022-09-30T07:30:31.945Z,15.38
2022-09-30T07:32:58.487Z,15.20
2022-09-30T07:35:25.048Z,12.88
2022-09-30T07:37:55.944Z,17.58
2022-09-30T07:40:22.447Z,13.70
2022-09-30T07:42:48.986Z,15.75
2022-09-30T07:45:18.448Z,13.23
2022-09-30T07:47:46.648Z,12.73
2022-09-30T07:50:17.815Z,14.45
2022-09-30T07:52:44.512Z,19.85
2022-09-30T07:55:11.441Z,12.48
2022-09-30T07:57:37.947Z,17.33
2022-09-30T08:00:29.811Z,12.40
2022-09-30T08:02:51.512Z,10.63
2022-09-30T08:05:18.073Z,16.23
2022-09-30T08:07:44.714Z,12.07
2022-09-30T08:10:11.301Z,15.30
2022-09-30T08:12:37.842Z,15.43
2022-09-30T08:15:06.021Z,11.00
2022-09-30T08:17:35.624Z,9.75
2022-09-30T08:20:02.245Z,12.88
2022-09-30T08:22:28.794Z,12.60
2022-09-30T08:24:55.360Z,10.10
2022-09-30T08:27:22.070Z,11.05
2022-09-30T08:29:57.608Z,12.25
2022-09-30T08:35:21.263Z,8.38
2022-09-30T08:37:48.316Z,10.63
2022-09-30T08:40:27.896Z,8.80
2022-09-30T08:43:16.845Z,7.47
2022-09-30T08:46:08.698Z,8.65
2022-09-30T08:49:10.933Z,7.60
2022-09-30T08:51:44.957Z,8.85
2022-09-30T08:54:15.159Z,9.10
2022-09-30T08:56:44.773Z,6.40
2022-09-30T08:59:29.404Z,7.53
2022-09-30T09:02:24.793Z,6.18
2022-09-30T09:04:52.553Z,6.60
2022-09-30T09:07:57.295Z,8.18
2022-09-30T09:10:45.133Z,6.70
2022-09-30T09:13:37.372Z,6.07
2022-09-30T09:16:30.864Z,6.50
2022-09-30T09:19:17.384Z,5.15
2022-09-30T09:22:00.524Z,7.55
2022-09-30T09:24:30.359Z,5.68
2022-09-30T09:26:58.881Z,4.28
2022-09-30T09:29:49.396Z,6.40
2022-09-30T09:32:18.809Z,7.93
2022-09-30T09:34:57.500Z,5.15
2022-09-30T09:37:58.237Z,5.05
2022-09-30T09:46:01.947Z,4.78
2022-09-30T09:48:30.657Z,7.28
2022-09-30T09:51:26.282Z,4.85
2022-09-30T09:53:58.075Z,4.40
2022-09-30T09:56:32.277Z,5.90
2022-09-30T09:59:19.763Z,4.93
2022-09-30T10:01:53.684Z,8.50
2022-09-30T10:04:32.680Z,5.07
2022-09-30T10:07:14.922Z,4.68
2022-09-30T10:09:43.052Z,5.15
2022-09-30T10:12:12.669Z,6.15
2022-09-30T10:14:47.820Z,4.88
2022-09-30T10:17:25.873Z,7.68
2022-09-30T10:19:55.579Z,4.63
2022-09-30T10:22:30.991Z,3.08
2022-09-30T10:25:24.888Z,3.95
2022-09-30T10:28:00.719Z,3.63
2022-09-30T10:30:38.648Z,2.78
2022-09-30T10:33:23.120Z,4.32
2022-09-30T10:36:13.369Z,5.07
2022-09-30T10:39:07.396Z,4.47
2022-09-30T10:41:37.019Z,5.45
2022-09-30T10:44:12.836Z,3.22
2022-09-30T10:46:41.682Z,2.15
2022-09-30T10:49:25.807Z,5.00
2022-09-30T10:51:52.625Z,4.03
2022-09-30T10:54:50.532Z,2.10
2022-09-30T10:57:22.178Z,3.28
2022-09-30T10:59:50.295Z,4.55
2022-09-30T11:02:25.539Z,4.80
2022-09-30T11:05:13.375Z,3.78
2022-09-30T11:07:50.307Z,3.78
2022-09-30T11:10:25.341Z,3.70
2022-09-30T11:13:23.567Z,3.72
2022-09-30T11:15:57.860Z,2.92
2022-09-30T11:19:07.565Z,4.28
2022-09-30T11:21:55.943Z,3.67
2022-09-30T11:24:45.553Z,4.40
2022-09-30T11:27:31.127Z,2.63
2022-09-30T11:30:08.746Z,4.18
2022-09-30T11:33:01.090Z,3.10
2022-09-30T11:39:09.768Z,3.97
2022-09-30T11:41:45.208Z,2.42
2022-09-30T11:44:38.305Z,3.53
2022-09-30T11:47:38.213Z,4.15
2022-09-30T11:50:23.528Z,2.55
2022-09-30T11:53:11.271Z,2.22
2022-09-30T11:56:17.936Z,2.35
2022-09-30T11:58:50.410Z,1.02
2022-09-30T12:01:34.511Z,2.50
2022-09-30T12:04:08.187Z,1.83
2022-09-30T12:07:08.658Z,3.88
2022-09-30T12:09:44.230Z,1.80
2022-09-30T12:12:16.663Z,1.58
2022-09-30T12:15:00.972Z,1.88
2022-09-30T12:17:34.319Z,4.88
2022-09-30T12:20:28.700Z,2.92
2022-09-30T12:23:05.755Z,3.60
2022-09-30T12:25:40.616Z,1.90
2022-09-30T12:28:35.912Z,3.20
2022-09-30T12:31:31.324Z,2.17
2022-09-30T12:34:14.319Z,1.60
2022-09-30T12:37:22.635Z,2.28
2022-09-30T12:39:49.119Z,1.58
2022-09-30T12:42:36.844Z,3.25
2022-09-30T12:45:09.436Z,2.78
2022-09-30T12:47:46.515Z,5.60
2022-09-30T12:50:16.496Z,2.92
2022-09-30T12:52:44.287Z,2.35
2022-09-30T12:55:29.005Z,2.58
2022-09-30T12:57:56.636Z,4.00
2022-09-30T13:00:26.137Z,9.10
2022-09-30T13:03:02.267Z,4.97
2022-09-30T13:05:36.090Z,4.95
2022-09-30T13:08:05.827Z,5.72
2022-09-30T13:10:47.057Z,8.38
2022-09-30T13:13:23.597Z,5.25
2022-09-30T13:15:56.084Z,5.30
2022-09-30T13:18:23.880Z,6.10
2022-09-30T13:21:04.650Z,6.95
2022-09-30T13:23:44.722Z,9.82
2022-09-30T13:26:23.763Z,3.85
2022-09-30T13:29:16.408Z,4.45
2022-09-30T13:31:49.052Z,4.40
2022-09-30T13:34:27.325Z,5.45
2022-09-30T13:36:53.984Z,9.15
2022-09-30T13:39:35.337Z,5.50
2022-09-30T13:42:31.279Z,7.57
2022-09-30T13:45:16.236Z,4.00
2022-09-30T13:47:51.685Z,5.55
2022-09-30T13:50:31.582Z,4.65
2022-09-30T13:53:02.445Z,4.32
2022-09-30T13:55:48.312Z,4.50
2022-09-30T13:58:40.746Z,5.35
2022-09-30T14:01:10.427Z,4.72
2022-09-30T14:04:18.644Z,4.60
2022-09-30T14:07:16.288Z,6.32
2022-09-30T14:09:42.801Z,6.40
2022-09-30T14:12:44.826Z,5.45
2022-09-30T14:15:38.971Z,5.03
2022-09-30T14:18:33.781Z,5.22
2022-09-30T14:21:39.451Z,6.88
2022-09-30T14:24:12.807Z,8.38
2022-09-30T14:27:15.824Z,6.45
2022-09-30T14:30:13.239Z,5.47
2022-09-30T14:32:54.880Z,5.60
2022-09-30T14:35:25.487Z,6.70
2022-09-30T14:38:02.205Z,6.18
2022-09-30T14:40:31.424Z,5.53
2022-09-30T14:43:02.586Z,7.22
2022-09-30T14:45:35.291Z,6.00
2022-09-30T14:48:08.464Z,7.43
2022-09-30T14:50:47.530Z,6.63
2022-09-30T14:53:41.560Z,8.13
2022-09-30T14:56:32.139Z,6.18
2022-09-30T14:58:59.823Z,7.68
2022-09-30T15:01:33.906Z,8.70
2022-09-30T15:04:11.834Z,7.13
2022-09-30T15:06:42.985Z,6.70
2022-09-30T15:09:33.231Z,8.70
2022-09-30T15:12:11.008Z,7.07
2022-09-30T15:14:54.029Z,6.72
2022-09-30T15:17:27.045Z,7.13
2022-09-30T15:19:55.717Z,9.18
2022-09-30T15:22:26.107Z,8.40
2022-09-30T15:24:53.852Z,8.27
2022-09-30T15:27:30.354Z,9.10
2022-09-30T15:30:21.526Z,6.78
2022-09-30T15:32:51.343Z,9.40
2022-09-30T15:35:23.688Z,9.25
2022-09-30T15:37:51.895Z,9.65
2022-09-30T15:40:40.618Z,11.32
2022-09-30T15:43:11.149Z,8.25
2022-09-30T15:45:40.582Z,8.85
2022-09-30T15:48:27.148Z,7.15
2022-09-30T15:50:56.640Z,8.07
2022-09-30T15:53:28.604Z,7.10
2022-09-30T15:56:17.036Z,7.18
2022-09-30T15:59:06.638Z,7.32
2022-09-30T16:01:39.755Z,7.63
2022-09-30T16:04:31.550Z,6.95
2022-09-30T16:07:08.671Z,7.32
2022-09-30T16:09:39.373Z,14.52
2022-09-30T16:12:12.060Z,8.15
2022-09-30T16:14:52.611Z,8.43
2022-09-30T16:17:26.305Z,7.70
2022-09-30T16:20:01.043Z,10.48
2022-09-30T16:22:42.637Z,7.63
2022-09-30T16:25:32.657Z,8.75
2022-09-30T16:28:12.073Z,8.40
2022-09-30T16:30:44.520Z,9.63
2022-09-30T16:33:13.448Z,10.95
2022-09-30T16:35:43.511Z,15.43
2022-09-30T16:38:13.168Z,8.02
2022-09-30T16:40:39.983Z,6.38
2022-09-30T16:43:08.085Z,7.03
2022-09-30T16:45:35.294Z,5.82
2022-09-30T16:48:02.501Z,6.85
2022-09-30T16:50:39.030Z,8.07
2022-09-30T16:53:06.054Z,7.25
2022-09-30T16:55:32.933Z,7.05
2022-09-30T16:57:59.680Z,6.63
2022-09-30T17:00:27.880Z,8.48
2022-09-30T17:02:54.518Z,6.30
2022-09-30T17:05:23.261Z,7.80
2022-09-30T17:07:55.564Z,8.05
2022-09-30T17:10:35.060Z,6.88
2022-09-30T17:13:02.170Z,7.35
2022-09-30T17:15:30.488Z,6.55
2022-09-30T17:17:57.864Z,7.95
2022-09-30T17:20:26.219Z,6.68
2022-09-30T17:22:53.049Z,7.75
2022-09-30T17:25:19.823Z,7.57
2022-09-30T17:27:49.991Z,7.07
2022-09-30T17:30:17.731Z,5.47
2022-09-30T17:32:44.444Z,6.18
2022-09-30T17:35:11.929Z,10.00
2022-09-30T17:37:42.463Z,10.00
2022-09-30T17:40:30.578Z,11.02
2022-09-30T17:43:12.312Z,7.25
2022-09-30T17:45:44.109Z,8.20
2022-09-30T17:48:12.200Z,7.30
2022-09-30T17:50:44.124Z,7.70
2022-09-30T17:53:13.112Z,7.45
2022-09-30T17:55:43.573Z,10.55
2022-09-30T17:58:12.327Z,8.52
2022-09-30T18:00:39.031Z,8.27
2022-09-30T18:03:06.051Z,16.17
2022-09-30T18:05:33.275Z,8.70
2022-09-30T18:08:00.077Z,8.75
2022-09-30T18:10:27.629Z,7.22
2022-09-30T18:12:55.079Z,10.50
2022-09-30T18:15:22.917Z,7.57
2022-09-30T18:17:49.926Z,12.18
2022-09-30T18:20:17.867Z,8.13
2022-09-30T18:22:46.132Z,8.70
2022-09-30T18:25:24.152Z,10.57
2022-09-30T18:27:53.523Z,7.72
2022-09-30T18:30:21.155Z,8.27
2022-09-30T18:32:52.809Z,8.50
2022-09-30T18:35:21.899Z,7.47
2022-09-30T18:37:52.059Z,8.50
2022-09-30T18:40:21.411Z,6.18
2022-09-30T18:42:49.026Z,9.13
2022-09-30T18:45:15.644Z,10.18
2022-09-30T18:47:43.817Z,10.70
2022-09-30T18:50:12.588Z,10.40
2022-09-30T18:52:41.302Z,9.82
2022-09-30T18:55:09.582Z,8.48
2022-09-30T18:57:36.160Z,8.52
2022-09-30T19:00:02.972Z,10.93
2022-09-30T19:02:29.700Z,10.40
2022-09-30T19:04:59.902Z,7.05
2022-09-30T19:07:26.913Z,9.07
2022-09-30T19:09:53.440Z,6.97
2022-09-30T19:12:21.293Z,8.35
2022-09-30T19:14:48.287Z,8.85
2022-09-30T19:17:15.499Z,12.35
2022-09-30T19:19:45.175Z,11.35
2022-09-30T19:22:13.375Z,8.57
2022-09-30T19:24:40.004Z,8.30
2022-09-30T19:27:06.804Z,11.10
2022-09-30T19:29:33.833Z,8.57
2022-09-30T19:32:00.539Z,9.45
2022-09-30T19:34:32.251Z,9.80
2022-09-30T19:36:59.748Z,7.78
2022-09-30T19:39:33.110Z,8.15
2022-09-30T19:42:05.972Z,8.73
2022-09-30T19:44:32.515Z,7.20
2022-09-30T19:46:59.104Z,10.90
2022-09-30T19:49:25.607Z,8.98
2022-09-30T19:51:52.904Z,7.68
2022-09-30T19:54:28.961Z,7.57
2022-09-30T19:57:02.275Z,8.85
2022-09-30T19:59:29.196Z,6.80
2022-09-30T20:01:56.030Z,6.35
2022-09-30T20:04:22.561Z,7.10
2022-09-30T20:06:49.156Z,7.30
2022-09-30T20:09:15.712Z,7.55
2022-09-30T20:11:42.307Z,10.32
2022-09-30T20:14:27.464Z,8.20
2022-09-30T20:16:54.583Z,6.07
2022-09-30T20:19:22.357Z,8.40
2022-09-30T20:21:49.970Z,8.07
2022-09-30T20:24:18.050Z,8.27
2022-09-30T20:26:45.558Z,6.93
2022-09-30T20:29:12.439Z,7.70
2022-09-30T20:31:41.524Z,7.03
2022-09-30T20:34:11.809Z,8.27
2022-09-30T20:36:40.224Z,12.02
2022-09-30T20:39:07.782Z,8.90
2022-09-30T20:41:36.728Z,7.85
2022-09-30T20:44:04.255Z,6.72
2022-09-30T20:46:31.923Z,5.38
2022-09-30T20:48:59.862Z,8.70
2022-09-30T20:51:29.090Z,6.05
2022-09-30T20:53:57.757Z,9.65
2022-09-30T20:56:26.067Z,6.88
2022-09-30T20:58:55.533Z,10.65
2022-09-30T21:01:23.852Z,6.90
2022-09-30T21:03:53.060Z,6.78
2022-09-30T21:06:28.560Z,9.45
2022-09-30T21:08:55.956Z,8.98
2022-09-30T21:11:23.645Z,10.00
2022-09-30T21:13:53.729Z,7.63
2022-09-30T21:16:25.255Z,6.57
2022-09-30T21:18:53.097Z,7.82
2022-09-30T21:21:21.540Z,6.30
2022-09-30T21:23:48.308Z,5.82
2022-09-30T21:26:17.025Z,7.88
2022-09-30T21:28:48.820Z,5.90
2022-09-30T21:31:26.473Z,5.90
2022-09-30T21:33:56.229Z,5.95
2022-09-30T21:36:24.186Z,8.23
2022-09-30T21:38:51.979Z,6.38
2022-09-30T21:41:22.766Z,6.38
2022-09-30T21:43:49.514Z,5.28
2022-09-30T21:46:17.342Z,5.65
2022-09-30T21:48:45.340Z,6.95
2022-09-30T21:51:13.535Z,5.35
2022-09-30T21:53:40.623Z,5.25
2022-09-30T21:56:11.415Z,4.95
2022-09-30T21:58:38.409Z,6.03
2022-09-30T22:01:06.830Z,7.03
2022-09-30T22:03:37.716Z,8.05
2022-09-30T22:06:07.853Z,5.75
2022-09-30T22:08:40.672Z,6.88
2022-09-30T22:11:13.656Z,8.05
2022-09-30T22:13:43.862Z,5.25
2022-09-30T22:16:11.765Z,7.28
2022-09-30T22:18:38.597Z,6.00
2022-09-30T22:21:11.198Z,6.78
2022-09-30T22:23:39.245Z,6.88
2022-09-30T22:26:11.017Z,5.65
2022-09-30T22:28:38.672Z,4.72
2022-09-30T22:31:19.209Z,5.60
2022-09-30T22:34:10.462Z,8.15
2022-09-30T22:36:56.016Z,5.75
2022-09-30T22:39:23.476Z,6.88
2022-09-30T22:41:54.159Z,6.68
2022-09-30T22:44:25.711Z,6.97
2022-09-30T22:46:53.594Z,5.35
2022-09-30T22:49:20.379Z,5.00
2022-09-30T22:51:50.780Z,8.52
2022-09-30T22:54:17.384Z,6.68
2022-09-30T22:56:44.104Z,5.82
2022-09-30T22:59:10.768Z,6.00
2022-09-30T23:01:37.372Z,6.72
2022-09-30T23:04:03.989Z,7.72
2022-09-30T23:06:31.839Z,6.55
2022-09-30T23:08:58.376Z,8.55
2022-09-30T23:11:25.484Z,5.55
2022-09-30T23:13:58.187Z,6.10
2022-09-30T23:16:25.711Z,6.60
2022-09-30T23:18:52.556Z,6.30
2022-09-30T23:21:19.998Z,6.60
2022-09-30T23:23:48.314Z,3.75
2022-09-30T23:26:26.784Z,5.43
2022-09-30T23:28:56.855Z,5.53
2022-09-30T23:31:24.056Z,6.40
2022-09-30T23:33:53.400Z,7.20
2022-09-30T23:36:29.367Z,5.35
2022-09-30T23:39:05.089Z,5.55
2022-09-30T23:41:33.909Z,5.43
2022-09-30T23:44:00.840Z,3.67
2022-09-30T23:46:27.491Z,8.05
2022-09-30T23:48:54.100Z,7.07
2022-09-30T23:51:20.599Z,6.68
2022-09-30T23:53:47.513Z,5.40
2022-09-30T23:56:16.391Z,6.53
2022-09-30T23:58:44.296Z,8.02
